Axis, Alabama
Current Conditions -  °F | °C
As of 1:53 PM on Monday 26 Jan 2015 (Local Time) from KBFM Reporting Station
Clear Clear  
Wind Chill: 60°   Ceiling: Unl
Heat Index: 60°   Visibility: 10mi
Dew Point: 37°   Wind: 16mph
Humidity: 42%   Direction: 300°WNW
Pressure: 30.01"   Gusts: NA
Location:  30.93°N, 88.03°W
Report Text: KBFM 261953Z 30014KT 10SM CLR 16/03 A3001 RMK AO2 PK WND 34026/1910 SLP163 T01560028
Loading
Personal Weather Stations






























Interactive Weather Map New forecast layout! Learn more

10-Day Weather Forecast

Advertisements
Track Severe Weather on mobile